createdAt,value
2023-05-05T11:59:37.327Z,22.04
2023-05-05T12:00:35.921Z,21.63
2023-05-05T12:01:35.848Z,21.35
2023-05-05T12:02:35.890Z,21.17
2023-05-05T12:03:35.888Z,21.03
2023-05-05T12:04:35.950Z,20.91
2023-05-05T12:05:36.969Z,20.80
2023-05-05T12:06:35.766Z,20.70
2023-05-05T12:07:35.789Z,20.62
2023-05-05T12:08:35.745Z,20.56
2023-05-05T12:09:35.764Z,20.51
2023-05-05T12:10:35.732Z,20.46
2023-05-05T12:11:35.731Z,20.40
2023-05-05T12:12:35.798Z,20.34
2023-05-05T12:13:35.727Z,20.27
2023-05-05T12:14:35.716Z,20.26
2023-05-05T12:15:35.691Z,20.33
2023-05-05T12:16:35.733Z,20.45
2023-05-05T12:17:35.686Z,20.61
2023-05-05T12:18:35.640Z,20.79
2023-05-05T12:19:35.657Z,20.94
2023-05-05T12:20:35.656Z,21.05
2023-05-05T12:21:35.600Z,21.14
2023-05-05T12:22:35.590Z,21.20
2023-05-05T12:23:35.602Z,21.21
2023-05-05T12:24:35.577Z,21.18
2023-05-05T12:25:35.560Z,21.13
2023-05-05T12:26:35.569Z,21.07
2023-05-05T12:27:35.585Z,21.01
2023-05-05T12:28:35.523Z,20.94
2023-05-05T12:29:35.550Z,20.87
2023-05-05T12:30:35.618Z,20.79
2023-05-05T12:31:35.578Z,20.72
2023-05-05T12:32:35.512Z,20.68
2023-05-05T12:33:35.478Z,20.63
2023-05-05T12:34:35.488Z,20.58
2023-05-05T12:35:35.588Z,20.52
2023-05-05T12:36:35.536Z,20.45
2023-05-05T12:37:35.440Z,20.37
2023-05-05T12:38:35.425Z,20.30
2023-05-05T12:39:35.445Z,20.28
2023-05-05T12:40:35.411Z,20.33
2023-05-05T12:41:35.460Z,20.45
2023-05-05T12:42:35.422Z,20.61
2023-05-05T12:43:35.411Z,20.74
2023-05-05T12:44:35.406Z,20.87
2023-05-05T12:45:35.360Z,20.98
2023-05-05T12:46:35.417Z,21.05
2023-05-05T12:47:35.359Z,21.07
2023-05-05T12:48:35.319Z,21.05
2023-05-05T12:49:35.303Z,21.05
2023-05-05T12:50:35.323Z,21.08
2023-05-05T12:51:35.290Z,21.10
2023-05-05T12:52:35.271Z,21.11
2023-05-05T12:53:35.261Z,21.12
2023-05-05T12:54:35.241Z,21.13
2023-05-05T12:55:35.289Z,21.12
2023-05-05T12:56:35.222Z,21.07
2023-05-05T12:57:35.226Z,21.00
2023-05-05T12:58:35.208Z,20.90
2023-05-05T12:59:35.201Z,20.80
2023-05-05T13:00:35.296Z,20.69
2023-05-05T13:01:35.290Z,20.59
2023-05-05T13:02:35.231Z,20.50
2023-05-05T13:03:35.183Z,20.41
2023-05-05T13:04:35.242Z,20.34
2023-05-05T13:05:35.234Z,20.30
2023-05-05T13:06:35.125Z,20.27
2023-05-05T13:07:35.180Z,20.24
2023-05-05T13:08:35.121Z,20.20
2023-05-05T13:09:35.086Z,20.15
2023-05-05T13:10:35.104Z,20.11
2023-05-05T13:11:35.064Z,20.07
2023-05-05T13:12:38.801Z,20.06
2023-05-05T13:13:36.381Z,20.04
2023-05-05T13:14:35.637Z,20.03
2023-05-05T13:15:35.757Z,20.01
2023-05-05T13:16:35.231Z,19.99
2023-05-05T13:17:35.481Z,19.98
2023-05-05T13:18:35.287Z,19.97
2023-05-05T13:19:35.948Z,19.95
2023-05-05T13:20:36.815Z,19.93
2023-05-05T13:21:35.245Z,19.90
2023-05-05T13:22:35.001Z,19.88
2023-05-05T13:23:35.193Z,19.86
2023-05-05T13:24:49.577Z,19.83
2023-05-05T13:25:35.987Z,19.82
2023-05-05T13:26:35.514Z,19.79
2023-05-05T13:27:35.325Z,19.77
2023-05-05T13:28:36.000Z,19.74
2023-05-05T13:29:35.042Z,19.71
2023-05-05T13:30:35.611Z,19.68
2023-05-05T13:31:35.655Z,19.65
2023-05-05T13:32:35.876Z,19.62
2023-05-05T13:33:34.870Z,19.59
2023-05-05T13:34:36.614Z,19.56
2023-05-05T13:35:35.356Z,19.53
2023-05-05T13:36:34.920Z,19.51
2023-05-05T13:37:36.017Z,19.51
2023-05-05T13:38:35.043Z,19.52
2023-05-05T13:39:34.986Z,19.53
2023-05-05T13:40:37.615Z,19.54
2023-05-05T13:41:35.032Z,19.55
2023-05-05T13:42:35.107Z,19.55
2023-05-05T13:43:36.209Z,19.54
2023-05-05T13:44:35.090Z,19.53
2023-05-05T13:45:34.850Z,19.52
2023-05-05T13:46:34.914Z,19.51
2023-05-05T13:47:35.187Z,19.49
2023-05-05T13:48:34.798Z,19.47
2023-05-05T13:49:34.671Z,19.46
2023-05-05T13:50:34.660Z,19.45
2023-05-05T13:51:34.838Z,19.46
2023-05-05T13:52:34.634Z,19.47
2023-05-05T13:53:34.610Z,19.48
2023-05-05T13:54:34.616Z,19.49
2023-05-05T13:55:34.587Z,19.50
2023-05-05T13:56:34.997Z,19.50
2023-05-05T13:57:34.702Z,19.50
2023-05-05T13:58:37.132Z,19.49
2023-05-05T13:59:34.559Z,19.48
2023-05-05T14:00:34.557Z,19.46
2023-05-05T14:01:34.825Z,19.44
2023-05-05T14:02:34.618Z,19.42
2023-05-05T14:03:34.578Z,19.40
2023-05-05T14:04:34.568Z,19.38
2023-05-05T14:05:34.635Z,19.37
2023-05-05T14:06:34.838Z,19.35
2023-05-05T14:07:34.471Z,19.33
2023-05-05T14:08:34.473Z,19.31
2023-05-05T14:09:34.443Z,19.30
2023-05-05T14:10:34.428Z,19.29
2023-05-05T14:11:34.468Z,19.28
2023-05-05T14:12:34.454Z,19.27
2023-05-05T14:13:34.393Z,19.27
2023-05-05T14:14:34.399Z,19.27
2023-05-05T14:15:34.374Z,19.26
2023-05-05T14:16:34.506Z,19.25
2023-05-05T14:17:34.430Z,19.24
2023-05-05T14:18:34.350Z,19.24
2023-05-05T14:19:34.351Z,19.23
2023-05-05T14:20:34.321Z,19.22
2023-05-05T14:21:34.336Z,19.22
2023-05-05T14:22:34.296Z,19.22
2023-05-05T14:23:34.305Z,19.21
2023-05-05T14:24:34.302Z,19.21
2023-05-05T14:25:34.290Z,19.21
2023-05-05T14:26:34.290Z,19.21
2023-05-05T14:27:34.236Z,19.20
2023-05-05T14:28:34.288Z,19.20
2023-05-05T14:29:34.221Z,19.20
2023-05-05T14:30:34.216Z,19.20
2023-05-05T14:31:34.297Z,19.19
2023-05-05T14:32:34.220Z,19.19
2023-05-05T14:33:34.182Z,19.20
2023-05-05T14:34:34.210Z,19.22
2023-05-05T14:35:34.183Z,19.24
2023-05-05T14:36:34.182Z,19.25
2023-05-05T14:37:34.143Z,19.27
2023-05-05T14:38:34.175Z,19.29
2023-05-05T14:39:34.117Z,19.33
2023-05-05T14:40:34.170Z,19.38
2023-05-05T14:41:34.110Z,19.42
2023-05-05T14:42:34.154Z,19.44
2023-05-05T14:43:34.095Z,19.46
2023-05-05T14:44:34.070Z,19.47
2023-05-05T14:45:34.077Z,19.48
2023-05-05T14:46:34.092Z,19.48
2023-05-05T14:47:34.078Z,19.48
2023-05-05T14:48:34.053Z,19.47
2023-05-05T14:49:34.022Z,19.47
2023-05-05T14:50:34.038Z,19.46
2023-05-05T14:51:33.989Z,19.45
2023-05-05T14:52:34.035Z,19.45
2023-05-05T14:53:33.996Z,19.44
2023-05-05T14:54:33.987Z,19.45
2023-05-05T14:55:33.968Z,19.46
2023-05-05T14:56:33.938Z,19.47
2023-05-05T14:57:34.014Z,19.47
2023-05-05T14:58:33.917Z,19.47
2023-05-05T14:59:33.916Z,19.47
2023-05-05T15:00:33.998Z,19.49
2023-05-05T15:01:33.941Z,19.51
2023-05-05T15:02:34.041Z,19.52
2023-05-05T15:03:33.986Z,19.52
2023-05-05T15:04:33.963Z,19.53
2023-05-05T15:05:33.890Z,19.53
2023-05-05T15:06:33.839Z,19.53
2023-05-05T15:07:33.827Z,19.53
2023-05-05T15:08:33.867Z,19.52
2023-05-05T15:09:33.804Z,19.51
2023-05-05T15:10:33.795Z,19.52
2023-05-05T15:11:33.861Z,19.53
2023-05-05T15:12:33.808Z,19.54
2023-05-05T15:13:33.749Z,19.54
2023-05-05T15:14:33.758Z,19.53
2023-05-05T15:15:33.725Z,19.52
2023-05-05T15:16:35.233Z,19.51
2023-05-05T15:17:33.734Z,19.49
2023-05-05T15:18:33.710Z,19.48
2023-05-05T15:19:33.688Z,19.46
2023-05-05T15:20:33.676Z,19.45
2023-05-05T15:21:33.711Z,19.43
2023-05-05T15:22:33.762Z,19.42
2023-05-05T15:23:33.667Z,19.41
2023-05-05T15:24:33.633Z,19.40
2023-05-05T15:25:33.825Z,19.39
2023-05-05T15:26:33.625Z,19.38
2023-05-05T15:27:33.613Z,19.36
2023-05-05T15:28:33.606Z,19.35
2023-05-05T15:29:33.710Z,19.34
2023-05-05T15:30:33.646Z,19.33
2023-05-05T15:31:33.608Z,19.32
2023-05-05T15:32:33.609Z,19.32
2023-05-05T15:33:33.557Z,19.32
2023-05-05T15:34:33.540Z,19.31
2023-05-05T15:35:33.564Z,19.31
2023-05-05T15:36:33.547Z,19.30
2023-05-05T15:37:33.553Z,19.29
2023-05-05T15:38:33.494Z,19.28
2023-05-05T15:39:33.492Z,19.27
2023-05-05T15:40:33.584Z,19.26
2023-05-05T15:41:33.456Z,19.25
2023-05-05T15:42:33.456Z,19.25
2023-05-05T15:43:33.439Z,19.26
2023-05-05T15:44:33.508Z,19.27
2023-05-05T15:45:33.440Z,19.27
2023-05-05T15:46:33.479Z,19.27
2023-05-05T15:47:33.464Z,19.28
2023-05-05T15:48:33.371Z,19.27
2023-05-05T15:49:33.485Z,19.27
2023-05-05T15:50:33.395Z,19.27
2023-05-05T15:51:33.360Z,19.28
2023-05-05T15:52:33.418Z,19.28
2023-05-05T15:53:33.314Z,19.30
2023-05-05T15:54:33.377Z,19.32
2023-05-05T15:55:33.311Z,19.35
2023-05-05T15:56:33.465Z,19.38
2023-05-05T15:57:33.288Z,19.39
2023-05-05T15:58:33.287Z,19.40
2023-05-05T15:59:33.247Z,19.40
2023-05-05T16:00:33.327Z,19.42
2023-05-05T16:01:33.279Z,19.43
2023-05-05T16:02:33.303Z,19.45
2023-05-05T16:03:33.418Z,19.45
2023-05-05T16:04:33.236Z,19.46
2023-05-05T16:05:33.223Z,19.46
2023-05-05T16:06:33.195Z,19.45
2023-05-05T16:07:33.164Z,19.44
2023-05-05T16:08:33.227Z,19.43
2023-05-05T16:09:33.156Z,19.42
2023-05-05T16:10:33.236Z,19.40
2023-05-05T16:11:33.147Z,19.39
2023-05-05T16:12:33.142Z,19.38
2023-05-05T16:13:33.131Z,19.38
2023-05-05T16:14:33.093Z,19.37
2023-05-05T16:15:33.169Z,19.35
2023-05-05T16:16:33.103Z,19.34
2023-05-05T16:17:33.146Z,19.32
2023-05-05T16:18:33.061Z,19.31
2023-05-05T16:19:33.238Z,19.31
2023-05-05T16:20:33.039Z,19.30
2023-05-05T16:21:33.132Z,19.28
2023-05-05T16:22:33.011Z,19.27
2023-05-05T16:23:33.095Z,19.25
2023-05-05T16:24:32.994Z,19.26
2023-05-05T16:25:32.973Z,19.26
2023-05-05T16:26:33.056Z,19.26
2023-05-05T16:27:32.961Z,19.25
2023-05-05T16:28:32.948Z,19.24
2023-05-05T16:29:32.927Z,19.22
2023-05-05T16:30:32.938Z,19.21
2023-05-05T16:31:32.987Z,19.19
2023-05-05T16:32:33.267Z,19.18
2023-05-05T16:33:32.910Z,19.16
2023-05-05T16:34:32.882Z,19.14
2023-05-05T16:35:32.870Z,19.13
2023-05-05T16:36:32.931Z,19.11
2023-05-05T16:37:32.848Z,19.10
2023-05-05T16:38:32.892Z,19.08
2023-05-05T16:39:32.865Z,19.07
2023-05-05T16:40:32.842Z,19.06
2023-05-05T16:41:32.868Z,19.05
2023-05-05T16:42:32.800Z,19.04
2023-05-05T16:43:32.792Z,19.03
2023-05-05T16:44:32.836Z,19.02
2023-05-05T16:45:32.755Z,19.02
2023-05-05T16:46:32.806Z,19.01
2023-05-05T16:47:32.791Z,19.00
2023-05-05T16:48:32.779Z,18.99
2023-05-05T16:49:32.843Z,18.98
2023-05-05T16:50:32.717Z,18.97
2023-05-05T16:51:32.709Z,18.96
2023-05-05T16:52:32.726Z,18.97
2023-05-05T16:53:32.693Z,18.99
2023-05-05T16:54:32.737Z,19.00
2023-05-05T16:55:32.661Z,19.01
2023-05-05T16:56:32.672Z,19.01
2023-05-05T16:57:32.624Z,19.00
2023-05-05T16:58:32.700Z,19.00
2023-05-05T16:59:32.623Z,18.99
2023-05-05T17:00:32.624Z,18.98
2023-05-05T17:01:32.684Z,18.97
2023-05-05T17:02:32.597Z,18.96
2023-05-05T17:03:32.634Z,18.95
2023-05-05T17:04:32.552Z,18.94
2023-05-05T17:05:32.587Z,18.93
2023-05-05T17:06:32.664Z,18.92
2023-05-05T17:07:32.568Z,18.91
2023-05-05T17:08:32.510Z,18.90
2023-05-05T17:09:32.499Z,18.89
2023-05-05T17:10:32.546Z,18.89
2023-05-05T17:11:32.486Z,18.88
2023-05-05T17:12:32.647Z,18.88
2023-05-05T17:13:32.477Z,18.87
2023-05-05T17:14:32.448Z,18.87
2023-05-05T17:15:32.470Z,18.86
2023-05-05T17:16:32.469Z,18.86
2023-05-05T17:17:32.452Z,18.85
2023-05-05T17:18:32.446Z,18.85
2023-05-05T17:19:32.393Z,18.84
2023-05-05T17:20:32.467Z,18.84
2023-05-05T17:21:32.378Z,18.84
2023-05-05T17:22:32.380Z,18.86
2023-05-05T17:23:32.384Z,18.89
2023-05-05T17:24:32.349Z,18.91
2023-05-05T17:25:32.348Z,18.93
2023-05-05T17:26:32.351Z,18.95
2023-05-05T17:27:32.322Z,18.96
2023-05-05T17:28:32.341Z,18.96
2023-05-05T17:29:32.287Z,18.99
2023-05-05T17:30:32.305Z,19.02
2023-05-05T17:31:32.314Z,19.03
2023-05-05T17:32:32.320Z,19.04
2023-05-05T17:33:32.249Z,19.05
2023-05-05T17:34:32.283Z,19.06
2023-05-05T17:35:32.231Z,19.05
2023-05-05T17:36:32.218Z,19.05
2023-05-05T17:37:32.229Z,19.04
2023-05-05T17:38:32.229Z,19.03
2023-05-05T17:39:32.194Z,19.01
2023-05-05T17:40:32.296Z,18.99
2023-05-05T17:41:32.215Z,18.97
2023-05-05T17:42:32.190Z,18.95
2023-05-05T17:43:32.121Z,18.93
2023-05-05T17:44:32.157Z,18.92
2023-05-05T17:45:32.152Z,18.90
2023-05-05T17:46:32.108Z,18.88
2023-05-05T17:47:32.167Z,18.87
2023-05-05T17:48:32.133Z,18.86
2023-05-05T17:49:32.145Z,18.87
2023-05-05T17:50:32.090Z,18.90
2023-05-05T17:51:32.050Z,18.92
2023-05-05T17:52:32.075Z,18.94
2023-05-05T17:53:32.104Z,18.97
2023-05-05T17:54:32.034Z,18.99
2023-05-05T17:55:32.003Z,19.00
2023-05-05T17:56:32.029Z,19.02
2023-05-05T17:57:32.022Z,19.03
2023-05-05T17:58:31.978Z,19.04
2023-05-05T17:59:31.975Z,19.04
2023-05-05T18:00:31.972Z,19.05
2023-05-05T18:01:32.051Z,19.05
2023-05-05T18:02:31.997Z,19.05
2023-05-05T18:03:32.020Z,19.05
2023-05-05T18:04:31.926Z,19.04
2023-05-05T18:05:31.967Z,19.03
2023-05-05T18:06:31.887Z,19.02
2023-05-05T18:07:31.894Z,19.01
2023-05-05T18:08:31.910Z,19.01
2023-05-05T18:09:31.902Z,19.00
2023-05-05T18:10:31.893Z,19.00
2023-05-05T18:11:31.856Z,18.99
2023-05-05T18:12:31.884Z,18.98
2023-05-05T18:13:31.820Z,18.97
2023-05-05T18:14:31.852Z,18.95
2023-05-05T18:15:31.905Z,18.93
2023-05-05T18:16:31.773Z,18.91
2023-05-05T18:17:31.779Z,18.88
2023-05-05T18:18:31.789Z,18.86
2023-05-05T18:19:31.804Z,18.84
2023-05-05T18:20:31.735Z,18.82
2023-05-05T18:21:31.750Z,18.80
2023-05-05T18:22:31.722Z,18.78
2023-05-05T18:23:31.755Z,18.76
2023-05-05T18:24:31.723Z,18.75
2023-05-05T18:25:31.677Z,18.74
2023-05-05T18:26:31.680Z,18.74
2023-05-05T18:27:31.692Z,18.74
2023-05-05T18:28:31.668Z,18.74
2023-05-05T18:29:31.671Z,18.74
2023-05-05T18:30:31.633Z,18.73
2023-05-05T18:31:31.684Z,18.73
2023-05-05T18:32:31.761Z,18.73
2023-05-05T18:33:31.634Z,18.72
2023-05-05T18:34:31.650Z,18.71
2023-05-05T18:35:31.624Z,18.70
2023-05-05T18:36:31.561Z,18.69
2023-05-05T18:37:31.602Z,18.68
2023-05-05T18:38:31.575Z,18.67
2023-05-05T18:39:31.557Z,18.65
2023-05-05T18:40:31.552Z,18.63
2023-05-05T18:41:31.600Z,18.60
2023-05-05T18:42:31.513Z,18.57
2023-05-05T18:43:31.481Z,18.54
2023-05-05T18:44:31.522Z,18.51
2023-05-05T18:45:31.531Z,18.47
2023-05-05T18:46:31.478Z,18.45
2023-05-05T18:47:31.470Z,18.42
2023-05-05T18:48:31.452Z,18.38
2023-05-05T18:49:31.785Z,18.33
2023-05-05T18:50:31.411Z,18.29
2023-05-05T18:51:31.426Z,18.26
2023-05-05T18:52:31.417Z,18.24
2023-05-05T18:53:31.381Z,18.21
2023-05-05T18:54:31.410Z,18.19
2023-05-05T18:55:31.367Z,18.16
2023-05-05T18:56:31.374Z,18.13
2023-05-05T18:57:31.361Z,18.08
2023-05-05T18:58:31.319Z,18.03
2023-05-05T18:59:31.344Z,17.99
2023-05-05T19:00:31.449Z,17.94
2023-05-05T19:01:31.299Z,17.89
2023-05-05T19:02:31.371Z,17.85
2023-05-05T19:03:31.295Z,17.82
2023-05-05T19:04:32.002Z,17.80
2023-05-05T19:05:31.270Z,17.77
2023-05-05T19:06:31.235Z,17.72
2023-05-05T19:07:35.371Z,17.67
2023-05-05T19:08:31.214Z,17.63
2023-05-05T19:09:31.235Z,17.59
2023-05-05T19:10:31.200Z,17.56
2023-05-05T19:11:31.178Z,17.55
2023-05-05T19:12:31.214Z,17.54
2023-05-05T19:13:31.170Z,17.52
2023-05-05T19:14:31.184Z,17.50
2023-05-05T19:15:31.159Z,17.51
2023-05-05T19:16:31.206Z,17.52
2023-05-05T19:17:31.123Z,17.53
2023-05-05T19:18:31.107Z,17.54
2023-05-05T19:19:31.127Z,17.56
2023-05-05T19:20:31.093Z,17.57
2023-05-05T19:21:31.075Z,17.59
2023-05-05T19:22:31.076Z,17.59
2023-05-05T19:23:31.075Z,17.59
2023-05-05T19:24:31.070Z,17.58
2023-05-05T19:25:31.033Z,17.56
2023-05-05T19:26:31.053Z,17.54
2023-05-05T19:27:31.035Z,17.50
2023-05-05T19:28:31.064Z,17.45
2023-05-05T19:29:31.019Z,17.41
2023-05-05T19:30:30.994Z,17.39
2023-05-05T19:31:31.141Z,17.37
2023-05-05T19:32:31.029Z,17.36
2023-05-05T19:33:31.076Z,17.34
2023-05-05T19:34:30.933Z,17.31
2023-05-05T19:35:30.942Z,17.29
2023-05-05T19:36:30.988Z,17.26
2023-05-05T19:37:30.916Z,17.24
2023-05-05T19:38:30.891Z,17.22
2023-05-05T19:39:30.881Z,17.20
2023-05-05T19:40:30.900Z,17.20
2023-05-05T19:41:30.894Z,17.20
2023-05-05T19:42:30.862Z,17.20
2023-05-05T19:43:30.881Z,17.19
2023-05-05T19:44:30.832Z,17.19
2023-05-05T19:45:30.827Z,17.18
2023-05-05T19:46:30.869Z,17.15
2023-05-05T19:47:30.827Z,17.12
2023-05-05T19:48:30.783Z,17.09
2023-05-05T19:49:30.775Z,17.06
2023-05-05T19:50:30.829Z,17.04
2023-05-05T19:51:30.750Z,17.02
2023-05-05T19:52:30.754Z,17.00
2023-05-05T19:53:30.778Z,16.97
2023-05-05T19:54:30.727Z,16.94
2023-05-05T19:55:30.726Z,16.90
2023-05-05T19:56:30.727Z,16.85
2023-05-05T19:57:30.689Z,16.81
2023-05-05T19:58:30.672Z,16.77
2023-05-05T19:59:30.702Z,16.74
2023-05-05T20:00:30.669Z,16.71
2023-05-05T20:01:30.673Z,16.68
2023-05-05T20:02:30.757Z,16.66
2023-05-05T20:03:30.665Z,16.63
2023-05-05T20:04:30.617Z,16.60
2023-05-05T20:05:30.651Z,16.56
2023-05-05T20:06:30.578Z,16.54
2023-05-05T20:07:30.589Z,16.52
2023-05-05T20:08:30.622Z,16.50
2023-05-05T20:09:30.557Z,16.49
2023-05-05T20:10:30.563Z,16.47
2023-05-05T20:11:30.556Z,16.46
2023-05-05T20:12:30.520Z,16.44
2023-05-05T20:13:30.536Z,16.41
2023-05-05T20:14:30.614Z,16.37
2023-05-05T20:15:31.931Z,16.34
2023-05-05T20:16:30.518Z,16.32
2023-05-05T20:17:30.548Z,16.31
2023-05-05T20:18:30.457Z,16.30
2023-05-05T20:19:30.450Z,16.30
2023-05-05T20:20:30.493Z,16.29
2023-05-05T20:21:30.423Z,16.29
2023-05-05T20:22:30.412Z,16.28
2023-05-05T20:23:30.471Z,16.28
2023-05-05T20:24:30.392Z,16.28
2023-05-05T20:25:30.383Z,16.28
2023-05-05T20:26:30.417Z,16.27
2023-05-05T20:27:30.371Z,16.25
2023-05-05T20:28:30.349Z,16.22
2023-05-05T20:29:30.381Z,16.20
2023-05-05T20:30:30.331Z,16.18
2023-05-05T20:31:30.474Z,16.16
2023-05-05T20:32:30.388Z,16.14
2023-05-05T20:33:30.306Z,16.13
2023-05-05T20:34:30.296Z,16.11
2023-05-05T20:35:30.281Z,16.10
2023-05-05T20:36:30.272Z,16.08
2023-05-05T20:37:30.562Z,16.07
2023-05-05T20:38:30.377Z,16.06
2023-05-05T20:39:30.456Z,16.05
2023-05-05T20:40:30.333Z,16.04
2023-05-05T20:41:30.415Z,16.04
2023-05-05T20:42:30.530Z,16.03
2023-05-05T20:43:30.365Z,16.02
2023-05-05T20:44:30.394Z,16.01
2023-05-05T20:45:30.224Z,16.00
2023-05-05T20:46:30.196Z,15.98
2023-05-05T20:47:30.189Z,15.96
2023-05-05T20:48:30.218Z,15.94
2023-05-05T20:49:30.120Z,15.91
2023-05-05T20:50:30.105Z,15.89
2023-05-05T20:51:30.154Z,15.87
2023-05-05T20:52:30.105Z,15.85
2023-05-05T20:53:30.091Z,15.84
2023-05-05T20:54:30.094Z,15.83
2023-05-05T20:55:30.082Z,15.83
2023-05-05T20:56:30.043Z,15.83
2023-05-05T20:57:30.142Z,15.83
2023-05-05T20:58:30.041Z,15.84
2023-05-05T20:59:30.091Z,15.84
2023-05-05T21:00:30.007Z,15.83
2023-05-05T21:01:30.147Z,15.82
2023-05-05T21:02:30.065Z,15.81
2023-05-05T21:03:30.072Z,15.80
2023-05-05T21:04:29.965Z,15.80
2023-05-05T21:05:29.967Z,15.80
2023-05-05T21:06:29.988Z,15.79
2023-05-05T21:07:29.968Z,15.78
2023-05-05T21:08:30.033Z,15.77
2023-05-05T21:09:29.992Z,15.75
2023-05-05T21:10:29.900Z,15.73
2023-05-05T21:11:29.895Z,15.72
2023-05-05T21:12:30.035Z,15.72
2023-05-05T21:13:29.859Z,15.71
2023-05-05T21:14:29.861Z,15.70
2023-05-05T21:15:29.837Z,15.70
2023-05-05T21:16:29.882Z,15.69
2023-05-05T21:17:29.852Z,15.69
2023-05-05T21:18:29.821Z,15.68
2023-05-05T21:19:29.893Z,15.68
2023-05-05T21:20:29.779Z,15.67
2023-05-05T21:21:29.789Z,15.66
2023-05-05T21:22:29.791Z,15.65
2023-05-05T21:23:29.843Z,15.64
2023-05-05T21:24:29.771Z,15.63
2023-05-05T21:25:29.724Z,15.61
2023-05-05T21:26:29.725Z,15.60
2023-05-05T21:27:29.747Z,15.58
2023-05-05T21:28:29.812Z,15.56
2023-05-05T21:29:29.693Z,15.54
2023-05-05T21:30:29.673Z,15.53
2023-05-05T21:31:29.710Z,15.52
2023-05-05T21:32:29.779Z,15.52
2023-05-05T21:33:29.678Z,15.52
2023-05-05T21:34:29.622Z,15.51
2023-05-05T21:35:29.625Z,15.50
2023-05-05T21:36:29.605Z,15.49
2023-05-05T21:37:29.662Z,15.48
2023-05-05T21:38:29.611Z,15.47
2023-05-05T21:39:29.698Z,15.46
2023-05-05T21:40:29.578Z,15.46
2023-05-05T21:41:29.592Z,15.45
2023-05-05T21:42:29.581Z,15.44
2023-05-05T21:43:29.550Z,15.44
2023-05-05T21:44:29.591Z,15.43
2023-05-05T21:45:29.510Z,15.42
2023-05-05T21:46:29.527Z,15.41
2023-05-05T21:47:29.529Z,15.40
2023-05-05T21:48:29.525Z,15.38
2023-05-05T21:49:29.479Z,15.36
2023-05-05T21:50:29.669Z,15.35
2023-05-05T21:51:29.451Z,15.33
2023-05-05T21:52:29.528Z,15.32
2023-05-05T21:53:29.428Z,15.32
2023-05-05T21:54:29.438Z,15.31
2023-05-05T21:55:29.421Z,15.30
2023-05-05T21:56:29.387Z,15.28
2023-05-05T21:57:29.457Z,15.26
2023-05-05T21:58:29.411Z,15.24
2023-05-05T21:59:29.381Z,15.22
2023-05-05T22:00:29.399Z,15.19
2023-05-05T22:01:29.443Z,15.18
2023-05-05T22:02:29.409Z,15.18
2023-05-05T22:03:29.494Z,15.17
2023-05-05T22:04:29.330Z,15.17
2023-05-05T22:05:29.482Z,15.16
2023-05-05T22:06:29.297Z,15.15
2023-05-05T22:07:29.973Z,15.14
2023-05-05T22:08:29.374Z,15.13
2023-05-05T22:09:29.303Z,15.11
2023-05-05T22:10:29.245Z,15.09
2023-05-05T22:11:29.256Z,15.08
2023-05-05T22:12:29.260Z,15.07
2023-05-05T22:13:29.230Z,15.06
2023-05-05T22:14:29.317Z,15.06
2023-05-05T22:15:35.643Z,15.05
2023-05-05T22:16:30.355Z,15.04
2023-05-05T22:17:29.209Z,15.03
2023-05-05T22:18:29.147Z,15.02
2023-05-05T22:19:29.223Z,15.02
2023-05-05T22:20:29.152Z,15.01
2023-05-05T22:21:29.125Z,15.01
2023-05-05T22:22:29.119Z,15.00
2023-05-05T22:23:29.122Z,15.00
2023-05-05T22:24:29.131Z,15.01
2023-05-05T22:25:29.093Z,15.02
2023-05-05T22:26:29.154Z,15.03
2023-05-05T22:27:29.061Z,15.04
2023-05-05T22:28:29.039Z,15.05
2023-05-05T22:29:29.034Z,15.04
2023-05-05T22:30:29.061Z,15.04
2023-05-05T22:31:29.096Z,15.04
2023-05-05T22:32:29.073Z,15.04
2023-05-05T22:33:29.006Z,15.04
2023-05-05T22:34:28.991Z,15.04
2023-05-05T22:35:29.001Z,15.04
2023-05-05T22:36:28.951Z,15.04
2023-05-05T22:37:28.956Z,15.03
2023-05-05T22:38:28.971Z,15.03
2023-05-05T22:39:28.947Z,15.03
2023-05-05T22:40:28.914Z,15.02
2023-05-05T22:41:28.926Z,15.02
2023-05-05T22:42:28.914Z,15.01
2023-05-05T22:43:28.910Z,15.01
2023-05-05T22:44:28.880Z,15.00
2023-05-05T22:45:28.930Z,15.00
2023-05-05T22:46:28.864Z,15.00
2023-05-05T22:47:28.895Z,14.99
2023-05-05T22:48:28.842Z,14.99
2023-05-05T22:49:28.984Z,14.98
2023-05-05T22:50:28.805Z,14.98
2023-05-05T22:51:28.798Z,14.99
2023-05-05T22:52:28.812Z,14.99
2023-05-05T22:53:28.774Z,15.00
2023-05-05T22:54:28.796Z,15.00
2023-05-05T22:55:28.754Z,15.00
2023-05-05T22:56:28.742Z,15.00
2023-05-05T22:57:28.763Z,15.00
2023-05-05T22:58:28.778Z,15.00
2023-05-05T22:59:28.730Z,15.01
2023-05-05T23:00:28.696Z,15.01
2023-05-05T23:01:28.716Z,15.01
2023-05-05T23:02:28.680Z,15.01
2023-05-05T23:03:28.702Z,15.01
2023-05-05T23:04:28.687Z,15.01
2023-05-05T23:05:28.665Z,15.01
2023-05-05T23:06:28.631Z,15.01
2023-05-05T23:07:28.629Z,15.00
2023-05-05T23:08:28.607Z,15.00
2023-05-05T23:09:28.589Z,15.00
2023-05-05T23:10:28.623Z,15.00
2023-05-05T23:11:28.581Z,15.00
2023-05-05T23:12:28.559Z,14.99
2023-05-05T23:13:28.705Z,14.99
2023-05-05T23:14:28.550Z,14.98
2023-05-05T23:15:28.641Z,14.98
2023-05-05T23:16:28.573Z,14.98
2023-05-05T23:17:28.544Z,14.98
2023-05-05T23:18:28.494Z,14.98
2023-05-05T23:19:28.480Z,14.98
2023-05-05T23:20:28.515Z,14.97
2023-05-05T23:21:29.348Z,14.97
2023-05-05T23:22:28.454Z,14.96
2023-05-05T23:23:28.449Z,14.94
2023-05-05T23:24:28.607Z,14.93
2023-05-05T23:25:28.429Z,14.91
2023-05-05T23:26:28.414Z,14.89
2023-05-05T23:27:28.434Z,14.88
2023-05-05T23:28:28.385Z,14.87
2023-05-05T23:29:28.409Z,14.86
2023-05-05T23:30:28.385Z,14.85
2023-05-05T23:31:28.371Z,14.85
2023-05-05T23:32:28.376Z,14.85
2023-05-05T23:33:28.354Z,14.85
2023-05-05T23:34:28.354Z,14.85
2023-05-05T23:35:28.500Z,14.84
2023-05-05T23:36:28.305Z,14.83
2023-05-05T23:37:28.306Z,14.82
2023-05-05T23:38:28.295Z,14.80
2023-05-05T23:39:28.306Z,14.79
2023-05-05T23:40:28.282Z,14.77
2023-05-05T23:41:28.248Z,14.77
2023-05-05T23:42:28.241Z,14.76
2023-05-05T23:43:28.256Z,14.75
2023-05-05T23:44:28.242Z,14.74
2023-05-05T23:45:28.207Z,14.74
2023-05-05T23:46:28.211Z,14.74
2023-05-05T23:47:28.240Z,14.74
2023-05-05T23:48:28.199Z,14.74
2023-05-05T23:49:28.160Z,14.75
2023-05-05T23:50:28.169Z,14.75
2023-05-05T23:51:28.141Z,14.75
2023-05-05T23:52:28.287Z,14.76
2023-05-05T23:53:28.149Z,14.76
2023-05-05T23:54:28.127Z,14.76
2023-05-05T23:55:28.184Z,14.77
2023-05-05T23:56:28.119Z,14.77
2023-05-05T23:57:28.082Z,14.76
2023-05-05T23:59:25.171Z,15.81
